createdAt,value
2022-09-12T00:02:53.651Z,11.5
2022-09-12T00:07:53.768Z,11.5
2022-09-12T00:12:53.597Z,11.5
2022-09-12T00:17:53.602Z,11.5
2022-09-12T00:22:53.740Z,11.5
2022-09-12T00:27:53.459Z,11.5
2022-09-12T00:32:53.540Z,11.5
2022-09-12T00:37:53.807Z,11.4
2022-09-12T00:42:53.513Z,11.4
2022-09-12T00:47:53.432Z,11.4
2022-09-12T00:52:53.561Z,11.4
2022-09-12T00:57:53.450Z,11.3
2022-09-12T01:02:53.442Z,11.3
2022-09-12T01:07:53.670Z,11.3
2022-09-12T01:12:53.501Z,11.2
2022-09-12T01:17:53.486Z,11.2
2022-09-12T01:22:53.599Z,11.1
2022-09-12T01:27:53.429Z,11.1
2022-09-12T01:32:53.471Z,11.2
2022-09-12T01:37:53.657Z,11.2
2022-09-12T01:42:53.338Z,11.1
2022-09-12T01:47:53.417Z,11.1
2022-09-12T01:52:53.627Z,11.1
2022-09-12T01:57:53.499Z,11.1
2022-09-12T02:02:53.336Z,11.1
2022-09-12T02:07:53.553Z,11.1
2022-09-12T02:12:53.488Z,11.1
2022-09-12T02:17:53.417Z,11.1
2022-09-12T02:22:53.251Z,11.0
2022-09-12T02:27:53.409Z,11.0
2022-09-12T02:32:53.346Z,10.9
2022-09-12T02:37:53.630Z,10.9
2022-09-12T02:42:53.268Z,10.8
2022-09-12T02:47:53.440Z,10.8
2022-09-12T02:52:53.498Z,10.8
2022-09-12T02:57:53.387Z,10.7
2022-09-12T03:02:53.293Z,10.6
2022-09-12T03:07:53.548Z,10.6
2022-09-12T03:12:53.300Z,10.6
2022-09-12T03:17:53.271Z,10.5
2022-09-12T03:22:53.379Z,10.5
2022-09-12T03:27:53.353Z,10.5
2022-09-12T03:32:53.331Z,10.5
2022-09-12T03:37:53.531Z,10.4
2022-09-12T03:42:53.172Z,10.3
2022-09-12T03:47:53.346Z,10.3
2022-09-12T03:52:53.270Z,10.2
2022-09-12T03:57:53.188Z,10.2
2022-09-12T04:02:53.076Z,10.2
2022-09-12T04:07:53.473Z,10.1
2022-09-12T04:12:53.167Z,10.1
2022-09-12T04:17:53.139Z,10.1
2022-09-12T04:22:53.310Z,10.1
2022-09-12T04:27:53.133Z,10.0
2022-09-12T04:32:53.229Z,10.0
2022-09-12T04:37:53.251Z,10.0
2022-09-12T04:42:53.104Z,10.0
2022-09-12T04:47:53.317Z,10.0
2022-09-12T04:52:53.696Z,10.0
2022-09-12T04:57:53.102Z,10.0
2022-09-12T05:02:53.054Z,10.0
2022-09-12T05:07:53.572Z,10.0
2022-09-12T05:12:53.283Z,10.1
2022-09-12T05:17:53.068Z,10.0
2022-09-12T05:22:53.153Z,10.1
2022-09-12T05:27:53.200Z,10.1
2022-09-12T05:32:53.061Z,10.1
2022-09-12T05:37:53.322Z,10.1
2022-09-12T05:42:53.021Z,10.1
2022-09-12T05:47:53.069Z,10.2
2022-09-12T05:52:53.376Z,10.2
2022-09-12T05:57:53.046Z,10.3
2022-09-12T06:02:52.914Z,10.4
2022-09-12T06:07:53.437Z,10.4
2022-09-12T06:12:53.001Z,10.5
2022-09-12T06:17:52.968Z,10.6
2022-09-12T06:22:53.089Z,10.7
2022-09-12T06:27:52.945Z,10.8
2022-09-12T06:32:52.951Z,10.9
2022-09-12T06:37:53.136Z,10.9
2022-09-12T06:42:52.875Z,11.1
2022-09-12T06:47:53.293Z,11.1
2022-09-12T06:52:53.035Z,11.2
2022-09-12T06:57:53.116Z,11.4
2022-09-12T07:02:52.831Z,11.5
2022-09-12T07:07:52.860Z,11.6
2022-09-12T07:12:53.024Z,11.8
2022-09-12T07:17:53.711Z,11.9
2022-09-12T07:22:53.130Z,12.0
2022-09-12T07:27:52.927Z,12.1
2022-09-12T07:32:52.911Z,12.1
2022-09-12T07:37:53.106Z,12.1
2022-09-12T07:42:52.830Z,12.1
2022-09-12T07:47:52.914Z,12.1
2022-09-12T07:52:53.043Z,12.1
2022-09-12T07:57:53.135Z,12.3
2022-09-12T08:02:52.792Z,12.4
2022-09-12T08:07:55.879Z,12.5
2022-09-12T08:12:52.736Z,12.6
2022-09-12T08:17:52.711Z,12.8
2022-09-12T08:22:52.952Z,12.9
2022-09-12T08:27:52.779Z,13.1
2022-09-12T08:32:52.856Z,13.4
2022-09-12T08:37:52.720Z,13.6
2022-09-12T08:42:52.758Z,13.6
2022-09-12T08:47:52.902Z,13.6
2022-09-12T08:52:52.841Z,13.6
2022-09-12T08:57:52.606Z,13.8
2022-09-12T09:02:52.781Z,14.0
2022-09-12T09:07:53.031Z,14.2
2022-09-12T09:12:52.642Z,14.3
2022-09-12T09:17:53.145Z,14.6
2022-09-12T09:22:53.550Z,14.8
2022-09-12T09:27:52.972Z,14.9
2022-09-12T09:32:53.012Z,15.0
2022-09-12T09:37:56.731Z,15.2
2022-09-12T09:42:52.644Z,15.6
2022-09-12T09:47:52.910Z,15.6
2022-09-12T09:52:52.557Z,15.6
2022-09-12T09:57:52.835Z,15.7
2022-09-12T10:02:52.878Z,15.8
2022-09-12T10:07:52.624Z,15.9
2022-09-12T10:12:52.624Z,15.8
2022-09-12T10:17:52.990Z,16.0
2022-09-12T10:22:52.645Z,16.0
2022-09-12T10:27:52.634Z,15.6
2022-09-12T10:32:52.517Z,15.6
2022-09-12T10:37:52.587Z,15.8
2022-09-12T10:42:52.581Z,15.5
2022-09-12T10:47:52.879Z,15.5
2022-09-12T10:52:52.524Z,16.0
2022-09-12T10:57:52.606Z,16.3
2022-09-12T11:02:52.852Z,16.6
2022-09-12T11:07:52.493Z,16.9
2022-09-12T11:12:52.430Z,16.9
2022-09-12T11:17:53.102Z,17.0
2022-09-12T11:22:52.476Z,16.9
2022-09-12T11:27:52.542Z,16.8
2022-09-12T11:32:52.656Z,17.0
2022-09-12T11:37:52.823Z,17.1
2022-09-12T11:42:52.421Z,16.9
2022-09-12T11:47:52.423Z,17.0
2022-09-12T11:52:52.417Z,17.1
2022-09-12T11:57:52.381Z,17.1
2022-09-12T12:02:53.372Z,16.9
2022-09-12T12:07:52.436Z,17.0
2022-09-12T12:12:52.356Z,17.2
2022-09-12T12:17:52.551Z,17.2
2022-09-12T12:22:52.308Z,17.1
2022-09-12T12:27:52.356Z,17.1
2022-09-12T12:32:52.533Z,17.3
2022-09-12T12:37:52.422Z,17.3
2022-09-12T12:42:52.348Z,17.2
2022-09-12T12:47:52.313Z,16.8
2022-09-12T12:52:52.684Z,16.8
2022-09-12T12:57:52.504Z,16.7
2022-09-12T13:02:52.431Z,16.5
2022-09-12T13:07:52.933Z,16.4
2022-09-12T13:12:52.510Z,16.3
2022-09-12T13:17:53.127Z,16.3
2022-09-12T13:22:52.370Z,16.6
2022-09-12T13:27:52.788Z,17.1
2022-09-12T13:32:52.637Z,17.3
2022-09-12T13:37:56.403Z,17.5
2022-09-12T13:42:52.222Z,17.6
2022-09-12T13:47:55.386Z,17.5
2022-09-12T13:52:53.322Z,17.2
2022-09-12T13:57:52.310Z,17.2
2022-09-12T14:02:52.262Z,17.2
2022-09-12T14:07:52.272Z,17.1
2022-09-12T14:12:52.195Z,17.0
2022-09-12T14:17:52.404Z,16.8
2022-09-12T14:22:52.246Z,16.6
2022-09-12T14:27:52.280Z,16.5
2022-09-12T14:32:52.397Z,16.2
2022-09-12T14:37:52.177Z,16.1
2022-09-12T14:42:52.188Z,15.9
2022-09-12T14:47:52.634Z,15.9
2022-09-12T14:52:52.766Z,15.9
2022-09-12T14:57:52.376Z,16.0
2022-09-12T15:02:52.124Z,16.1
2022-09-12T15:07:52.184Z,16.1
2022-09-12T15:12:52.143Z,16.2
2022-09-12T15:17:52.554Z,16.3
2022-09-12T15:22:52.143Z,16.4
2022-09-12T15:27:52.313Z,16.4
2022-09-12T15:32:52.025Z,16.4
2022-09-12T15:37:52.109Z,16.5
2022-09-12T15:42:52.021Z,16.4
2022-09-12T15:47:52.426Z,16.4
2022-09-12T15:52:52.034Z,16.4
2022-09-12T15:57:52.190Z,16.4
2022-09-12T16:02:52.282Z,16.4
2022-09-12T16:07:52.155Z,16.3
2022-09-12T16:12:51.988Z,16.2
2022-09-12T16:17:52.034Z,16.0
2022-09-12T16:22:52.017Z,15.9
2022-09-12T16:27:52.038Z,15.9
2022-09-12T16:32:52.158Z,15.7
2022-09-12T16:37:52.095Z,15.6
2022-09-12T16:42:52.028Z,15.5
2022-09-12T16:47:52.239Z,15.4
2022-09-12T16:52:51.929Z,15.4
2022-09-12T16:57:52.019Z,15.2
2022-09-12T17:02:52.220Z,15.1
2022-09-12T17:07:51.976Z,15.1
2022-09-12T17:12:51.995Z,15.0
2022-09-12T17:17:52.517Z,14.9
2022-09-12T17:22:51.973Z,14.7
2022-09-12T17:27:52.033Z,14.5
2022-09-12T17:32:52.209Z,14.3
2022-09-12T17:37:52.097Z,14.2
2022-09-12T17:42:52.049Z,14.1
2022-09-12T17:47:52.133Z,14.0
2022-09-12T17:52:52.028Z,13.9
2022-09-12T17:57:52.301Z,13.8
2022-09-12T18:02:52.151Z,13.7
2022-09-12T18:07:51.856Z,13.6
2022-09-12T18:12:51.906Z,13.6
2022-09-12T18:17:52.103Z,13.6
2022-09-12T18:22:51.996Z,13.6
2022-09-12T18:27:51.803Z,13.6
2022-09-12T18:32:52.076Z,13.6
2022-09-12T18:37:52.094Z,13.6
2022-09-12T18:42:52.045Z,13.6
2022-09-12T18:52:53.339Z,13.4
2022-09-12T18:57:51.864Z,13.3
2022-09-12T19:02:51.995Z,13.1
2022-09-12T19:07:51.841Z,13.0
2022-09-12T19:17:52.060Z,12.9
2022-09-12T19:22:51.879Z,12.7
2022-09-12T19:27:51.732Z,12.6
2022-09-12T19:32:51.777Z,12.5
2022-09-12T19:37:51.781Z,12.4
2022-09-12T19:42:51.692Z,12.2
2022-09-12T19:47:51.886Z,12.1
2022-09-12T19:52:51.818Z,12.0
2022-09-12T19:57:51.782Z,11.9
2022-09-12T20:02:52.076Z,11.8
2022-09-12T20:07:51.689Z,11.7
2022-09-12T20:12:51.782Z,11.6
2022-09-12T20:17:51.915Z,11.4
2022-09-12T20:22:51.584Z,11.3
2022-09-12T20:27:51.704Z,11.1
2022-09-12T20:32:51.781Z,11.1
2022-09-12T20:37:51.625Z,11.0
2022-09-12T20:42:51.583Z,11.0
2022-09-12T20:47:51.906Z,10.9
2022-09-12T20:52:51.718Z,10.9
2022-09-12T20:57:51.631Z,10.8
2022-09-12T21:02:51.631Z,10.6
2022-09-12T21:07:51.586Z,10.5
2022-09-12T21:12:51.537Z,10.5
2022-09-12T21:17:51.907Z,10.4
2022-09-12T21:22:51.530Z,10.3
2022-09-12T21:27:51.505Z,10.3
2022-09-12T21:32:51.701Z,10.2
2022-09-12T21:37:51.551Z,10.1
2022-09-12T21:42:51.484Z,10.1
2022-09-12T21:47:51.641Z,10.0
2022-09-12T21:52:51.490Z,10.0
2022-09-12T21:57:51.491Z,9.9
2022-09-12T22:02:51.655Z,9.8
2022-09-12T22:07:51.486Z,9.6
2022-09-12T22:12:51.599Z,9.6
2022-09-12T22:17:51.619Z,9.5
2022-09-12T22:22:51.456Z,9.4
2022-09-12T22:27:51.452Z,9.4
2022-09-12T22:32:51.627Z,9.3
2022-09-12T22:37:51.420Z,9.3
2022-09-12T22:42:51.383Z,9.3
2022-09-12T22:47:52.483Z,9.3
2022-09-12T22:52:51.378Z,9.3
2022-09-12T22:57:51.357Z,9.3
2022-09-12T23:02:51.605Z,9.3
2022-09-12T23:07:51.508Z,9.3
2022-09-12T23:12:51.448Z,9.3
2022-09-12T23:17:51.294Z,9.3
2022-09-12T23:22:51.496Z,9.3
2022-09-12T23:27:51.454Z,9.2
2022-09-12T23:32:51.612Z,9.2
2022-09-12T23:37:51.402Z,9.1
2022-09-12T23:42:51.329Z,9.1
2022-09-12T23:47:51.551Z,9.0
2022-09-12T23:52:51.412Z,8.9
2022-09-12T23:57:51.430Z,8.8
